Morrison, Missouri
Current Conditions -  °F | °C
As of 8:53 PM on Tuesday 25 Nov 2014 (Local Time) from KJEF Reporting Station
Clear Clear  
Wind Chill: 27°   Ceiling: Unl
Heat Index: 27°   Visibility: 10mi
Dew Point: 19°   Wind: 3mph
Humidity: 72%   Direction: 110°ESE
Pressure: 30.16"   Gusts: NA
Location:  38.67°N, 91.64°W
Report Text: KJEF 260253Z 11003KT 10SM CLR M03/M07 A3016 RMK AO2 SLP209 T10281072 51002
Loading
Personal Weather Stations






























Interactive Weather Map New forecast layout! Learn more

10-Day Weather Forecast

Advertisements
Track Severe Weather on mobile